METAR AND TAF INFORMATION
METAR FOR EHKD
ADDS - METARS form results

(0902 UTC 25 January 2022)
Data provider http://aviationweather.gov/metar/data/
 
METAR text: EHKD 250855Z AUTO 19006KT 6000 BR OVC015 04/01 Q1034 WHT TEMPO 4500 BR BKN014
Conditions at: EHKD (DE KOOY (NAVY) , NL) observed 0855 UTC 25 January 2022
Temperature: 4.0°C (39°F)
Dewpoint: 1.0°C (34°F) [RH = 81%]
Pressure (altimeter): 30.53 inches Hg (1034.0 mb)
Winds: from the S (190 degrees) at 7 MPH (6 knots; 3.1 m/s)
Visibility: 4 miles ( 6 km)
Ceiling: 1500 feet AGL
Clouds: overcast cloud deck at 1500 feet AGL
Weather: BR  (mist)

METAR text: EHKD 250825Z AUTO 19005KT 170V230 5000 BR OVC015 04/01 Q1034 WHT TEMPO 4500 BR BKN014
Conditions at: EHKD (DE KOOY (NAVY) , NL) observed 0825 UTC 25 January 2022
Temperature: 4.0°C (39°F)
Dewpoint: 1.0°C (34°F) [RH = 81%]
Pressure (altimeter): 30.53 inches Hg (1034.0 mb)
Winds: from the S (190 degrees) at 6 MPH (5 knots; 2.6 m/s)
Visibility: 3 miles ( 5 km)
Ceiling: 1500 feet AGL
Clouds: overcast cloud deck at 1500 feet AGL
Weather: BR  (mist)

Forecast for: EHKD (DE KOOY (NAVY) , NL)
Text: TAF EHKD 250511Z 2506/2518 20005KT 6000 OVC018
Forecast period: 0600 to 1800 UTC 25 January 2022
Forecast type: FROM: standard forecast or significant change
Winds: from the SSW (200 degrees) at 6 MPH (5 knots; 2.6 m/s)
Visibility: 4 miles (6 km)
Ceiling: 1800 feet AGL
Clouds: overcast cloud deck at 1800 feet AGL
Weather: no significant weather forecast for this period
Text: PROB40
Forecast period: 0600 to 1000 UTC 25 January 2022
Forecast type: TEMPORARY: The following changes expected for less than half the time period
Visibility: 2.80 miles (4.51 km)
Ceiling: 1400 feet AGL
Clouds: broken clouds at 1400 feet AGL
Weather: BR  (mist)

 AIRPORT MAP

 RUNWAY INFORMATION
Runway 04 Runway length 4183 ft Runway width 98 ft
Runway elevation 3 ft Runway displaced threshold 804 ft Runway heading 34
Runway 22 Runway length 4183 ft Runway width 98 ft
Runway elevation 2 ft Runway displaced threshold 804 ft Runway heading 214

 AIRPORT FREQUENCIES
Type APP Name APP Frequency 119.1 MHZ
Type FSS Name FINAL Frequency 123.3 MHZ
Type GND Name GND Frequency 121.725 MHZ
Type TWR Name TWR Frequency 120.125 MHZ

 AIRPORT NEAR NAVIGATION AIDS
Type VOR-DME Name Den Helder Frequency 115550 KHZ